Time;durP1;ratioP1;P1;durP2;ratioP2;P2;SDS_P1;SDS_P2;PMS_P1;PMS_P2;Temp;Humidity;BMP_temperature;BMP_pressure;BME280_temperature;BME280_humidity;BME280_pressure;Samples;Min_cycle;Max_cycle;Signal;HPM_P1;HPM_P2
2022/01/24 00:00:40;;;;;;;;;27.75;25.50;;;;;6.53;81.41;103450.22;4983717;28;11223;-72
2022/01/24 00:03:06;;;;;;;;;21.25;17.75;;;;;6.55;81.26;103450.97;5008588;28;11331;-71
2022/01/24 00:05:33;;;;;;;;;21.25;20.00;;;;;6.55;81.58;103456.34;4992107;28;11284;-71
2022/01/24 00:08:00;;;;;;;;;24.25;19.00;;;;;6.53;81.77;103447.53;5007699;28;11251;-71
2022/01/24 00:10:28;;;;;;;;;27.00;22.00;;;;;6.54;81.77;103444.72;4989929;28;11310;-71
2022/01/24 00:15:52;;;;;;;;;20.00;19.25;;;;;6.53;81.83;103443.00;5010233;28;12030;-72
2022/01/24 00:18:35;;;;;;;;;17.25;14.00;;;;;6.55;82.11;103446.47;5008916;28;11549;-73
2022/01/24 00:26:46;;;;;;;;;17.75;16.25;;;;;6.58;83.54;103448.09;4991916;28;11239;-73
2022/01/24 00:29:18;;;;;;;;;26.00;22.00;;;;;6.56;82.88;103450.00;4981883;28;11796;-72
2022/01/24 00:31:45;;;;;;;;;25.00;22.25;;;;;6.60;83.04;103452.41;5006891;28;11135;-73
2022/01/24 00:34:13;;;;;;;;;37.25;28.25;;;;;6.55;83.46;103443.78;4973785;28;11175;-73
2022/01/24 00:36:40;;;;;;;;;26.50;22.25;;;;;6.54;83.71;103439.34;5009423;28;11679;-72
2022/01/24 00:39:08;;;;;;;;;38.75;36.00;;;;;6.52;84.52;103445.78;5008523;28;11390;-73
2022/01/24 00:41:52;;;;;;;;;40.00;34.25;;;;;6.50;84.42;103439.66;5008859;28;11673;-72
2022/01/24 00:46:56;;;;;;;;;19.25;15.75;;;;;6.51;84.86;103438.69;5007338;28;11550;-72
2022/01/24 00:49:47;;;;;;;;;28.50;27.00;;;;;6.50;84.82;103435.13;4990989;28;11145;-72
2022/01/24 00:55:00;;;;;;;;;23.75;21.50;;;;;6.58;84.84;103442.69;5009011;28;11053;-73
2022/01/24 00:57:27;;;;;;;;;18.75;18.75;;;;;6.56;85.02;103434.72;4990194;28;11658;-72
2022/01/24 00:59:53;;;;;;;;;25.00;23.50;;;;;6.52;84.96;103433.19;5006904;28;11245;-72
2022/01/24 01:02:20;;;;;;;;;30.50;21.75;;;;;6.53;85.59;103432.25;5008665;28;11635;-72
2022/01/24 01:05:04;;;;;;;;;19.00;18.75;;;;;6.54;85.65;103436.66;4998675;28;11170;-72
2022/01/24 01:18:30;;;;;;;;;29.25;26.00;;;;;6.43;84.69;103434.63;5007110;28;11663;-72
2022/01/24 01:21:08;;;;;;;;;35.50;29.00;;;;;6.39;84.14;103435.81;5030801;22;12334;-71
2022/01/24 01:23:38;;;;;;;;;25.50;23.75;;;;;6.43;84.19;103433.78;5026205;28;11540;-71
2022/01/24 01:26:11;;;;;;;;;31.25;25.25;;;;;6.41;83.64;103423.13;5020742;28;11560;-72
2022/01/24 01:28:41;;;;;;;;;22.50;21.25;;;;;6.44;83.58;103427.44;5019108;28;11512;-73
2022/01/24 01:31:14;;;;;;;;;22.00;20.00;;;;;6.44;83.33;103427.44;5022349;28;11151;-73
2022/01/24 01:34:00;;;;;;;;;19.00;18.75;;;;;6.43;82.64;103429.25;5021073;28;11130;-71
2022/01/24 01:39:29;;;;;;;;;19.25;16.75;;;;;6.46;81.90;103429.09;5018333;28;11204;-71
2022/01/24 01:53:23;;;;;;;;;16.50;16.00;;;;;6.31;79.94;103430.06;5020059;28;11208;-71
2022/01/24 01:55:48;;;;;;;;;25.75;22.75;;;;;6.29;80.41;103431.13;5022546;28;11198;-71
2022/01/24 01:58:18;;;;;;;;;16.50;11.00;;;;;6.33;80.99;103432.66;5003953;28;11272;-71
2022/01/24 02:00:48;;;;;;;;;16.00;14.00;;;;;6.33;80.32;103430.81;5019674;28;11960;-71
2022/01/24 02:03:15;;;;;;;;;11.50;10.75;;;;;6.33;80.17;103430.81;5020782;28;11706;-71
2022/01/24 02:05:42;;;;;;;;;20.00;12.00;;;;;6.32;79.84;103431.78;5017665;28;11017;-71
2022/01/24 02:08:08;;;;;;;;;13.25;11.00;;;;;6.32;80.06;103425.53;5019512;28;11195;-72
2022/01/24 02:10:37;;;;;;;;;11.25;11.25;;;;;6.31;80.29;103421.13;5020516;28;10971;-71
2022/01/24 02:13:05;;;;;;;;;15.50;13.75;;;;;6.29;79.21;103417.66;5002907;28;11142;-71
2022/01/24 02:16:25;;;;;;;;;9.50;9.50;;;;;6.27;78.63;103425.84;5002398;28;10972;-71
2022/01/24 02:25:55;;;;;;;;;20.50;14.00;;;;;6.28;74.00;103408.72;5008971;28;11234;-72
2022/01/24 02:28:23;;;;;;;;;14.50;11.00;;;;;6.31;75.11;103411.22;5020008;28;11079;-71
2022/01/24 02:33:25;;;;;;;;;12.25;9.25;;;;;6.25;74.82;103410.75;5017395;28;10869;-72
2022/01/24 02:35:52;;;;;;;;;19.75;17.25;;;;;6.23;73.70;103413.56;5008775;28;10828;-71
2022/01/24 02:49:19;;;;;;;;;8.00;8.00;;;;;6.27;73.86;103406.16;5002387;28;10945;-71
2022/01/24 02:51:46;;;;;;;;;10.00;5.25;;;;;6.27;73.81;103400.75;5019063;28;10846;-72
2022/01/24 02:54:23;;;;;;;;;13.50;12.75;;;;;6.26;73.60;103404.41;5019095;28;11475;-70
2022/01/24 02:56:50;;;;;;;;;12.00;10.00;;;;;6.27;75.24;103403.47;5008435;28;11025;-71
2022/01/24 02:59:17;;;;;;;;;8.00;8.00;;;;;6.23;74.17;103394.72;5001058;28;10897;-71
2022/01/24 03:01:44;;;;;;;;;14.50;12.00;;;;;6.24;74.25;103395.59;5001608;28;11592;-72
2022/01/24 03:04:13;;;;;;;;;12.75;11.75;;;;;6.23;74.22;103402.78;5017630;28;11023;-71
2022/01/24 03:06:39;;;;;;;;;12.50;9.75;;;;;6.25;74.90;103391.94;5003938;28;10882;-71
2022/01/24 03:09:07;;;;;;;;;15.75;14.25;;;;;6.21;73.40;103390.41;5007261;28;10926;-71
2022/01/24 03:11:57;;;;;;;;;15.25;11.00;;;;;6.21;73.35;103388.56;5001316;28;11072;-71
2022/01/24 03:14:29;;;;;;;;;17.00;13.00;;;;;6.28;73.58;103384.53;5017498;28;10934;-71
2022/01/24 03:16:57;;;;;;;;;13.75;10.00;;;;;6.23;72.91;103383.97;5002344;28;11133;-71
2022/01/24 03:19:23;;;;;;;;;10.50;10.00;;;;;6.25;72.91;103387.41;5017564;28;11021;-72
2022/01/24 03:21:50;;;;;;;;;10.75;10.75;;;;;6.26;72.58;103388.28;5022472;28;10933;-71
2022/01/24 03:24:17;;;;;;;;;12.25;11.75;;;;;6.25;72.17;103386.56;5030505;28;10971;-71
2022/01/24 03:26:43;;;;;;;;;9.50;8.75;;;;;6.23;71.99;103385.78;5026132;28;10841;-71
2022/01/24 03:29:10;;;;;;;;;13.50;10.00;;;;;6.24;72.54;103390.19;5030713;28;10873;-72
2022/01/24 03:31:38;;;;;;;;;14.75;12.00;;;;;6.23;73.07;103386.66;5030901;28;11102;-71
2022/01/24 03:34:05;;;;;;;;;19.25;12.50;;;;;6.22;73.03;103379.53;5009421;28;10953;-71
2022/01/24 03:36:32;;;;;;;;;17.75;16.25;;;;;6.20;72.44;103378.78;5004592;28;11367;-71
2022/01/24 03:38:58;;;;;;;;;16.00;11.75;;;;;6.20;71.92;103372.50;5020496;28;11933;-71
2022/01/24 03:41:25;;;;;;;;;19.75;18.25;;;;;6.17;70.98;103376.25;5019801;28;11353;-73
2022/01/24 03:43:52;;;;;;;;;18.00;13.75;;;;;6.21;72.97;103380.50;5006655;28;11293;-71
2022/01/24 03:48:51;;;;;;;;;14.00;9.00;;;;;6.23;73.61;103375.88;5018777;28;11013;-72
2022/01/24 03:51:20;;;;;;;;;13.75;12.75;;;;;6.27;73.41;103373.88;5022556;28;11699;-71
2022/01/24 03:53:47;;;;;;;;;15.00;13.75;;;;;6.32;73.16;103377.13;5021688;28;11013;-71
2022/01/24 03:56:15;;;;;;;;;10.00;7.75;;;;;6.31;73.03;103365.50;5010652;28;11172;-72
2022/01/24 03:58:43;;;;;;;;;10.00;9.75;;;;;6.34;72.84;103376.06;5004899;28;11105;-72
2022/01/24 04:01:10;;;;;;;;;10.50;10.00;;;;;6.28;72.65;103373.75;5022356;28;10844;-71
2022/01/24 04:03:38;;;;;;;;;18.50;11.00;;;;;6.29;73.15;103371.94;5007303;28;10913;-71
2022/01/24 04:06:05;;;;;;;;;7.50;7.50;;;;;6.30;74.31;103365.59;5012350;28;11048;-73
2022/01/24 04:08:32;;;;;;;;;13.25;10.50;;;;;6.27;73.37;103377.41;5026454;28;10766;-71
2022/01/24 04:10:59;;;;;;;;;14.25;13.25;;;;;6.27;73.57;103374.72;5022026;28;11059;-71
2022/01/24 04:13:38;;;;;;;;;11.25;8.50;;;;;6.27;73.61;103374.72;5002322;28;11137;-71
2022/01/24 04:16:25;;;;;;;;;10.00;8.00;;;;;6.30;73.80;103376.34;5020270;28;10994;-72
2022/01/24 04:21:32;;;;;;;;;12.25;7.50;;;;;6.33;75.18;103385.09;5019810;28;10956;-73
2022/01/24 04:24:06;;;;;;;;;10.00;7.00;;;;;6.29;75.80;103370.09;5027526;28;10747;-72
2022/01/24 04:26:35;;;;;;;;;8.25;7.00;;;;;6.23;75.21;103383.09;5029231;28;10873;-71
2022/01/24 04:29:03;;;;;;;;;9.25;8.75;;;;;6.23;75.21;103383.97;5013375;28;10888;-71
2022/01/24 04:31:30;;;;;;;;;13.00;8.75;;;;;6.17;75.95;103379.81;5019931;28;10825;-72
2022/01/24 04:33:57;;;;;;;;;21.00;12.50;;;;;6.17;76.25;103377.13;5021130;28;10950;-71
2022/01/24 04:36:25;;;;;;;;;5.00;5.00;;;;;6.16;76.57;103372.72;5022766;28;10743;-71
2022/01/24 04:38:52;;;;;;;;;13.25;12.50;;;;;6.16;76.17;103378.09;5020423;28;11698;-71
2022/01/24 04:41:27;;;;;;;;;10.00;8.75;;;;;6.19;76.54;103379.72;5022086;28;10890;-71
2022/01/24 04:44:10;;;;;;;;;17.00;9.00;;;;;6.16;74.66;103378.09;5021992;28;10942;-71
2022/01/24 04:52:07;;;;;;;;;13.00;11.50;;;;;6.16;74.32;103355.69;5010335;28;11126;-71
2022/01/24 04:54:42;;;;;;;;;11.00;9.25;;;;;6.19;75.87;103360.88;5003294;28;11023;-72
2022/01/24 04:57:17;;;;;;;;;10.50;8.75;;;;;6.18;75.43;103359.16;5019916;28;10976;-71
2022/01/24 04:59:47;;;;;;;;;9.25;8.25;;;;;6.16;74.77;103353.00;5020845;28;11639;-72
2022/01/24 05:02:15;;;;;;;;;14.00;11.50;;;;;6.13;73.90;103351.38;5021467;28;10795;-72
2022/01/24 05:04:42;;;;;;;;;17.25;14.75;;;;;6.10;72.93;103361.47;5018797;28;11058;-71
2022/01/24 05:07:09;;;;;;;;;17.00;13.50;;;;;6.17;73.06;103352.91;5020885;28;11091;-71
2022/01/24 05:09:47;;;;;;;;;20.00;14.50;;;;;6.17;73.42;103347.53;5020670;28;11212;-72
2022/01/24 05:23:34;;;;;;;;;20.50;13.25;;;;;6.07;74.03;103359.84;5019748;28;11187;-71
2022/01/24 05:26:04;;;;;;;;;29.25;22.25;;;;;6.02;73.13;103363.81;5021317;28;11130;-72
2022/01/24 05:28:32;;;;;;;;;19.75;17.25;;;;;6.05;73.14;103366.28;5018025;28;12028;-71
2022/01/24 05:30:59;;;;;;;;;26.75;18.50;;;;;6.07;73.06;103367.06;5017689;28;11080;-71
2022/01/24 05:33:27;;;;;;;;;24.00;18.00;;;;;6.06;72.94;103359.97;5019036;28;11058;-72
2022/01/24 05:35:55;;;;;;;;;17.25;16.00;;;;;6.11;73.43;103360.53;5008901;28;11059;-71
2022/01/24 05:38:22;;;;;;;;;22.00;16.00;;;;;6.07;72.77;103356.31;5018907;28;11333;-71
2022/01/24 05:40:49;;;;;;;;;18.25;16.50;;;;;6.13;73.85;103364.84;5019365;28;11185;-72
2022/01/24 05:43:16;;;;;;;;;18.25;17.00;;;;;6.11;73.79;103361.38;5021528;28;12274;-71
2022/01/24 05:45:42;;;;;;;;;25.00;23.25;;;;;6.09;73.78;103363.31;5018089;28;11059;-72
2022/01/24 05:48:09;;;;;;;;;19.50;18.00;;;;;6.08;74.33;103366.09;5018003;28;11532;-71
2022/01/24 05:50:36;;;;;;;;;25.25;21.75;;;;;6.06;74.47;103362.66;5008434;28;11131;-71
2022/01/24 05:53:02;;;;;;;;;24.50;20.50;;;;;6.00;75.00;103363.91;5020554;28;11572;-71
2022/01/24 05:55:29;;;;;;;;;32.75;27.50;;;;;6.01;74.98;103368.31;5018466;28;11211;-71
2022/01/24 05:57:55;;;;;;;;;18.75;17.50;;;;;6.00;75.10;103371.97;5018422;28;11611;-74
2022/01/24 06:00:22;;;;;;;;;36.25;29.25;;;;;6.01;75.29;103371.00;5021331;28;11236;-71
2022/01/24 06:02:50;;;;;;;;;24.25;18.25;;;;;5.99;75.82;103364.00;5018296;28;11615;-72
2022/01/24 06:05:16;;;;;;;;;20.50;19.00;;;;;6.01;76.07;103373.69;5023143;28;11542;-71
2022/01/24 06:07:43;;;;;;;;;26.00;19.50;;;;;5.95;75.43;103373.19;5016394;28;11538;-71
2022/01/24 06:10:09;;;;;;;;;25.00;24.25;;;;;5.94;75.39;103371.47;5017861;28;11604;-72
2022/01/24 06:12:36;;;;;;;;;35.00;28.25;;;;;5.90;75.88;103373.50;5020349;28;11530;-71
2022/01/24 06:15:03;;;;;;;;;34.00;29.00;;;;;5.85;75.89;103373.75;5025493;28;11542;-71
2022/01/24 06:17:30;;;;;;;;;29.75;26.50;;;;;5.87;76.29;103363.75;5020105;28;11586;-71
2022/01/24 06:19:57;;;;;;;;;25.00;19.00;;;;;5.94;76.04;103376.84;5017959;28;11671;-72
2022/01/24 06:22:23;;;;;;;;;25.75;24.75;;;;;5.92;76.07;103366.19;5020307;28;12359;-71
2022/01/24 06:24:49;;;;;;;;;26.75;25.25;;;;;5.90;75.60;103364.56;5017971;28;11541;-73
2022/01/24 06:27:36;;;;;;;;;46.50;39.00;;;;;5.77;75.65;103368.00;5020590;28;11555;-72
2022/01/24 06:30:03;;;;;;;;;34.75;31.25;;;;;5.79;76.09;103381.34;5000981;28;11543;-71
2022/01/24 06:32:29;;;;;;;;;38.50;32.25;;;;;5.73;76.32;103379.06;5018826;28;11515;-71
2022/01/24 06:34:56;;;;;;;;;34.25;31.25;;;;;5.75;76.29;103379.81;4999860;28;11687;-71
2022/01/24 06:37:22;;;;;;;;;35.50;34.25;;;;;5.73;76.39;103379.06;5002076;28;12352;-72
2022/01/24 06:39:49;;;;;;;;;42.00;33.50;;;;;5.61;76.44;103377.97;5018536;28;11543;-71
2022/01/24 06:42:22;;;;;;;;;42.50;35.25;;;;;5.64;76.16;103380.47;5002689;28;11608;-71
2022/01/24 06:44:53;;;;;;;;;35.75;28.50;;;;;5.74;76.83;103386.16;5016906;28;12304;-72
2022/01/24 06:47:21;;;;;;;;;42.25;36.75;;;;;5.73;76.54;103387.13;5016430;28;11586;-71
2022/01/24 06:49:48;;;;;;;;;37.25;32.25;;;;;5.79;76.67;103389.41;4999511;28;11616;-71
2022/01/24 06:52:15;;;;;;;;;32.50;29.50;;;;;5.83;76.49;103382.88;5022114;28;11553;-71
2022/01/24 06:54:43;;;;;;;;;31.75;28.50;;;;;5.82;76.37;103375.78;5017736;28;11547;-71
2022/01/24 06:57:12;;;;;;;;;38.75;36.25;;;;;5.78;76.61;103379.63;5019186;28;11531;-72
2022/01/24 06:59:39;;;;;;;;;38.00;31.25;;;;;5.78;76.63;103380.47;5017823;28;11551;-71
2022/01/24 07:02:07;;;;;;;;;31.50;23.75;;;;;5.76;76.85;103387.78;5003119;28;11559;-71
2022/01/24 07:04:36;;;;;;;;;42.75;37.25;;;;;5.72;76.29;103391.63;5016111;28;11529;-71
2022/01/24 07:07:04;;;;;;;;;43.50;30.00;;;;;5.73;75.48;103393.34;5018525;28;11555;-72
2022/01/24 07:09:30;;;;;;;;;50.50;39.75;;;;;5.71;74.78;103410.53;5000353;28;11511;-71
2022/01/24 07:11:57;;;;;;;;;49.75;40.00;;;;;5.70;75.27;103404.28;5017680;28;11560;-70
2022/01/24 07:14:23;;;;;;;;;34.25;29.75;;;;;5.72;75.38;103397.00;5023235;28;11624;-71
2022/01/24 07:19:28;;;;;;;;;51.00;39.75;;;;;5.64;74.65;103406.47;5017829;28;11575;-72
2022/01/24 07:21:56;;;;;;;;;38.50;37.00;;;;;5.70;74.58;103409.66;5025301;28;11538;-71
2022/01/24 07:24:23;;;;;;;;;48.50;39.25;;;;;5.70;74.56;103412.34;5024561;28;11559;-72
2022/01/24 07:26:50;;;;;;;;;34.00;30.75;;;;;5.73;74.97;103414.84;5024810;28;11675;-72
2022/01/24 07:29:17;;;;;;;;;54.75;37.75;;;;;5.68;74.57;103413.38;5006306;28;11523;-72
2022/01/24 07:31:44;;;;;;;;;44.75;34.25;;;;;5.67;75.04;103412.50;5022925;28;11738;-72
2022/01/24 07:34:11;;;;;;;;;43.00;35.25;;;;;5.72;75.22;103417.63;5023571;28;11526;-71
2022/01/24 07:36:37;;;;;;;;;52.50;42.00;;;;;5.65;74.36;103409.06;5011196;28;11618;-72
2022/01/24 07:39:04;;;;;;;;;46.00;37.25;;;;;5.72;74.06;103409.56;5022763;28;11676;-71
2022/01/24 07:41:34;;;;;;;;;44.75;37.00;;;;;5.70;74.60;103411.47;5024712;28;11599;-71
2022/01/24 07:44:00;;;;;;;;;46.50;40.25;;;;;5.63;74.45;103413.66;5025189;28;11661;-72
2022/01/24 07:46:28;;;;;;;;;45.50;38.50;;;;;5.67;75.30;103420.56;5022423;28;11587;-71
2022/01/24 07:48:55;;;;;;;;;37.75;36.50;;;;;5.63;74.56;103416.34;5024907;28;11642;-71
2022/01/24 07:51:22;;;;;;;;;52.00;41.00;;;;;5.67;74.48;103415.19;5010403;28;11561;-70
2022/01/24 07:53:48;;;;;;;;;46.50;38.25;;;;;5.69;74.18;103423.16;4998201;28;11669;-70
2022/01/24 07:56:17;;;;;;;;;35.50;30.75;;;;;5.69;74.50;103415.97;5023520;28;11566;-69
2022/01/24 07:58:44;;;;;;;;;28.25;25.75;;;;;6.05;78.23;103412.00;5019966;28;11559;-71
2022/01/24 08:01:12;;;;;;;;;29.00;26.50;;;;;5.85;74.97;103418.59;5018605;28;12320;-70
2022/01/24 08:03:39;;;;;;;;;58.00;44.00;;;;;5.73;73.33;103417.53;5021884;28;11525;-70
2022/01/24 08:06:06;;;;;;;;;62.25;45.75;;;;;5.67;72.57;103417.88;5021268;28;11590;-70
2022/01/24 08:08:32;;;;;;;;;52.25;41.75;;;;;5.68;73.46;103419.63;5023007;28;11587;-70
2022/01/24 08:10:59;;;;;;;;;46.25;36.25;;;;;5.74;73.82;103419.25;5007948;28;11614;-70
2022/01/24 08:13:26;;;;;;;;;39.75;36.25;;;;;5.74;74.03;103426.47;5008802;28;11544;-70
2022/01/24 08:15:52;;;;;;;;;49.00;38.25;;;;;5.70;73.64;103428.47;5007879;28;11564;-71
2022/01/24 08:18:19;;;;;;;;;42.50;35.25;;;;;5.72;73.41;103431.06;5009764;28;12516;-71
2022/01/24 08:20:45;;;;;;;;;44.00;35.25;;;;;5.69;73.06;103437.47;5024234;28;11560;-71
2022/01/24 08:23:12;;;;;;;;;54.00;41.50;;;;;5.65;72.85;103437.75;5024078;28;11541;-70
2022/01/24 08:25:38;;;;;;;;;47.75;41.50;;;;;5.69;73.55;103444.66;5018277;28;11599;-74
2022/01/24 08:28:05;;;;;;;;;38.25;32.50;;;;;5.73;74.03;103430.97;5022377;28;11611;-70
2022/01/24 08:30:32;;;;;;;;;50.50;39.50;;;;;5.81;74.14;103443.94;5022558;28;11672;-71
2022/01/24 08:32:59;;;;;;;;;46.50;41.00;;;;;5.73;73.14;103448.94;5011144;28;11559;-70
2022/01/24 08:35:26;;;;;;;;;49.50;40.50;;;;;5.65;72.93;103445.81;5019153;28;11608;-72
2022/01/24 08:37:52;;;;;;;;;44.50;39.50;;;;;5.65;72.62;103444.00;5005456;28;12367;-71
2022/01/24 08:40:24;;;;;;;;;53.00;46.50;;;;;5.60;72.25;103442.56;5020285;28;11554;-70
2022/01/24 08:48:12;;;;;;;;;51.00;43.25;;;;;5.63;71.99;103429.78;5022153;28;11598;-71
2022/01/24 08:50:39;;;;;;;;;46.25;40.25;;;;;5.63;72.04;103443.22;5023571;28;11704;-71
2022/01/24 08:53:06;;;;;;;;;54.25;42.50;;;;;5.70;72.83;103443.72;5021119;28;12721;-70
2022/01/24 08:55:35;;;;;;;;;51.00;43.00;;;;;5.68;72.52;103435.75;5008610;28;12474;-71
2022/01/24 08:58:04;;;;;;;;;57.50;43.75;;;;;5.63;71.77;103440.53;5001905;28;12371;-71
2022/01/24 09:00:31;;;;;;;;;50.00;40.75;;;;;5.65;71.29;103437.75;5014188;28;11737;-72
2022/01/24 09:02:58;;;;;;;;;56.50;44.75;;;;;5.58;71.41;103434.59;5022043;28;12399;-73
2022/01/24 09:05:27;;;;;;;;;53.25;42.25;;;;;5.65;71.57;103437.75;5022515;28;11566;-73
2022/01/24 09:07:54;;;;;;;;;51.50;44.25;;;;;5.65;71.26;103441.31;5020855;28;11594;-72
2022/01/24 09:10:24;;;;;;;;;50.25;38.00;;;;;5.68;71.14;103451.00;5020929;28;11625;-71
2022/01/24 09:12:51;;;;;;;;;50.25;43.25;;;;;5.67;71.14;103460.03;5020258;28;11537;-71
2022/01/24 09:15:18;;;;;;;;;64.00;45.00;;;;;5.61;70.69;103452.34;5019847;28;11595;-71
2022/01/24 09:17:44;;;;;;;;;46.75;35.25;;;;;5.70;70.88;103457.16;5001637;28;11696;-71
2022/01/24 09:20:12;;;;;;;;;53.00;45.75;;;;;5.64;70.12;103457.53;4997041;28;11668;-71
2022/01/24 09:22:43;;;;;;;;;50.50;42.00;;;;;5.70;70.28;103458.03;5018281;28;12760;-71
2022/01/24 09:25:10;;;;;;;;;46.50;41.25;;;;;5.68;70.37;103459.06;5000996;28;11640;-71
2022/01/24 09:27:40;;;;;;;;;55.50;45.50;;;;;5.59;70.63;103457.81;5016009;28;11640;-71
2022/01/24 09:30:09;;;;;;;;;59.75;48.75;;;;;5.65;70.68;103460.13;5020187;28;11548;-71
2022/01/24 09:32:35;;;;;;;;;54.50;44.25;;;;;5.69;70.26;103455.41;5021151;28;11592;-72
2022/01/24 09:35:05;;;;;;;;;48.50;40.75;;;;;5.57;69.69;103454.34;5018004;28;11636;-71
2022/01/24 09:37:33;;;;;;;;;63.75;50.50;;;;;5.55;70.03;103461.66;5018090;28;11564;-71
2022/01/24 09:39:59;;;;;;;;;61.50;48.75;;;;;5.48;70.29;103461.16;5001357;28;11750;-73
2022/01/24 09:42:26;;;;;;;;;64.25;47.25;;;;;5.42;70.58;103463.31;5019186;28;11681;-74
2022/01/24 09:44:52;;;;;;;;;59.00;46.00;;;;;5.55;71.03;103459.81;5016211;28;11645;-71
2022/01/24 09:47:19;;;;;;;;;57.50;45.25;;;;;5.63;71.05;103459.34;5019848;28;11681;-71
2022/01/24 09:49:47;;;;;;;;;48.00;43.25;;;;;5.65;70.39;103456.56;5018414;28;11691;-72
2022/01/24 09:52:14;;;;;;;;;40.75;36.25;;;;;5.60;70.06;103454.16;5020193;28;11602;-71
2022/01/24 09:54:41;;;;;;;;;52.25;40.00;;;;;5.64;69.84;103452.16;4986776;28;13002;-71
2022/01/24 09:57:08;;;;;;;;;48.75;40.75;;;;;5.68;70.15;103453.69;5017341;28;11563;-70
2022/01/24 09:59:35;;;;;;;;;56.25;45.25;;;;;5.69;70.45;103450.03;5017518;28;11659;-71
2022/01/24 10:02:02;;;;;;;;;58.25;44.75;;;;;5.50;69.60;103455.69;5018675;28;11562;-71
2022/01/24 10:04:30;;;;;;;;;49.00;44.00;;;;;5.52;69.59;103449.25;5000405;28;11628;-70
2022/01/24 10:07:15;;;;;;;;;57.25;43.25;;;;;5.59;69.82;103455.13;5002086;28;11644;-71
2022/01/24 10:09:48;;;;;;;;;48.00;38.25;;;;;5.71;69.89;103459.78;5018198;28;11873;-70
2022/01/24 10:17:41;;;;;;;;;48.75;41.00;;;;;5.77;69.55;103450.47;5019975;28;11649;-71
2022/01/24 10:20:27;;;;;;;;;34.25;28.75;;;;;5.85;69.66;103457.09;5016353;28;11672;-70
2022/01/24 10:23:04;;;;;;;;;51.75;40.75;;;;;5.82;68.97;103454.59;5020085;28;11703;-73
2022/01/24 10:25:31;;;;;;;;;45.25;34.25;;;;;5.86;69.13;103447.19;5017245;28;11598;-71
2022/01/24 10:28:03;;;;;;;;;52.25;38.75;;;;;5.77;68.62;103451.31;5019428;28;11603;-71
2022/01/24 10:30:31;;;;;;;;;43.50;34.50;;;;;5.73;68.92;103457.00;5017048;28;11572;-71
2022/01/24 10:33:00;;;;;;;;;38.50;34.50;;;;;5.75;68.52;103450.56;5019667;28;12394;-74
2022/01/24 10:35:33;;;;;;;;;50.00;42.25;;;;;5.75;68.97;103450.56;5018239;28;12402;-71
2022/01/24 10:41:21;;;;;;;;;44.50;35.75;;;;;5.80;68.36;103456.50;5020046;28;12388;-71
2022/01/24 10:43:52;;;;;;;;;42.75;32.25;;;;;5.85;68.54;103453.53;5002828;28;11570;-72
2022/01/24 10:46:26;;;;;;;;;31.25;26.50;;;;;5.84;68.48;103451.81;5017794;28;11560;-72
2022/01/24 10:49:15;;;;;;;;;46.75;40.75;;;;;5.78;68.40;103446.81;5002672;28;11652;-70
2022/01/24 10:51:44;;;;;;;;;34.00;32.75;;;;;5.85;68.25;103445.47;5004083;28;11532;-71
2022/01/24 10:54:14;;;;;;;;;49.75;41.50;;;;;5.89;68.38;103444.31;5018713;28;12346;-71
2022/01/24 10:56:43;;;;;;;;;36.50;31.75;;;;;5.85;67.54;103443.66;5005741;28;11543;-70
2022/01/24 10:59:09;;;;;;;;;34.00;30.50;;;;;5.84;67.55;103441.06;5020719;28;11554;-70
2022/01/24 11:01:37;;;;;;;;;35.75;28.00;;;;;5.85;67.54;103443.66;5018795;28;11561;-74
2022/01/24 11:04:06;;;;;;;;;36.50;30.00;;;;;5.88;67.69;103439.91;4998199;28;12391;-70
2022/01/24 11:06:36;;;;;;;;;40.25;36.50;;;;;5.90;67.13;103435.31;5021270;28;11569;-71
2022/01/24 11:09:25;;;;;;;;;44.75;38.25;;;;;5.89;67.45;103436.25;5019830;28;11717;-72
2022/01/24 11:12:23;;;;;;;;;47.25;31.25;;;;;5.85;67.19;103432.03;5005189;28;11535;-71
2022/01/24 11:14:51;;;;;;;;;48.75;40.00;;;;;5.94;68.16;103427.94;5001164;28;11697;-71
2022/01/24 11:17:20;;;;;;;;;38.25;34.25;;;;;6.01;68.30;103434.69;5000264;28;11657;-71
2022/01/24 11:19:55;;;;;;;;;40.50;33.50;;;;;5.88;67.31;103432.69;5020558;28;11674;-70
2022/01/24 11:22:26;;;;;;;;;37.75;34.25;;;;;5.86;67.15;103429.25;5020363;28;11550;-71
2022/01/24 11:24:58;;;;;;;;;37.75;33.75;;;;;5.87;67.57;103428.28;5020270;28;11560;-73
2022/01/24 11:27:37;;;;;;;;;43.75;38.75;;;;;5.99;67.43;103431.22;5011706;28;11578;-72
2022/01/24 11:30:11;;;;;;;;;43.25;33.00;;;;;6.04;67.10;103427.28;5017971;28;11721;-71
2022/01/24 11:32:47;;;;;;;;;39.50;32.50;;;;;5.99;66.90;103428.53;5019760;28;11721;-71
2022/01/24 11:35:29;;;;;;;;;42.50;33.75;;;;;5.95;67.36;103422.50;5018633;28;11663;-72
2022/01/24 11:37:57;;;;;;;;;35.25;30.25;;;;;5.94;67.73;103417.19;5001830;28;11644;-71
2022/01/24 11:40:25;;;;;;;;;29.00;26.25;;;;;5.93;67.71;103413.63;5018973;28;11644;-72
2022/01/24 11:42:52;;;;;;;;;45.50;35.50;;;;;5.93;67.95;103416.31;5020435;28;11654;-71
2022/01/24 11:45:45;;;;;;;;;39.75;38.00;;;;;5.92;68.23;103408.34;5022977;28;11559;-71
2022/01/24 11:48:15;;;;;;;;;60.75;45.75;;;;;5.60;68.47;103411.16;5020034;28;11541;-71
2022/01/24 11:50:42;;;;;;;;;52.75;42.00;;;;;5.74;68.10;103410.34;5021657;28;11665;-71
2022/01/24 11:53:21;;;;;;;;;45.00;40.50;;;;;5.83;67.97;103404.38;5018298;28;11718;-70
2022/01/24 11:55:48;;;;;;;;;30.75;28.25;;;;;5.88;67.90;103407.66;5019921;28;12528;-71
2022/01/24 11:58:32;;;;;;;;;43.00;33.50;;;;;5.86;67.21;103410.44;5018369;28;11695;-71
2022/01/24 12:01:04;;;;;;;;;36.00;26.75;;;;;5.89;67.30;103409.38;5020228;28;11561;-71
2022/01/24 12:03:30;;;;;;;;;38.75;32.50;;;;;5.91;67.69;103406.63;5002320;28;11570;-72
2022/01/24 12:06:08;;;;;;;;;42.75;33.50;;;;;5.91;67.60;103407.47;5001275;28;11568;-73
2022/01/24 12:09:02;;;;;;;;;46.75;37.75;;;;;5.93;67.60;103410.06;5017306;28;12408;-74
2022/01/24 12:11:33;;;;;;;;;46.00;32.00;;;;;5.95;68.49;103406.34;5019033;28;11549;-72
2022/01/24 12:14:23;;;;;;;;;42.00;34.25;;;;;5.91;67.62;103407.47;5018871;28;11577;-71
2022/01/24 12:16:52;;;;;;;;;42.75;38.75;;;;;5.92;67.39;103409.22;5018833;28;11610;-71
2022/01/24 12:19:31;;;;;;;;;44.75;35.25;;;;;5.97;68.17;103403.56;5021042;28;11650;-71
2022/01/24 12:21:57;;;;;;;;;53.50;42.50;;;;;5.73;66.75;103403.25;5017282;28;11570;-70
2022/01/24 12:24:43;;;;;;;;;51.00;41.50;;;;;5.91;67.76;103398.56;4986105;28;11758;-71
2022/01/24 12:27:09;;;;;;;;;49.50;38.00;;;;;5.88;67.55;103391.50;5019112;28;11678;-71
2022/01/24 12:29:41;;;;;;;;;37.50;30.50;;;;;5.94;67.90;103395.66;5043749;22;11704;-72
2022/01/24 12:32:21;;;;;;;;;39.75;33.00;;;;;5.91;67.21;103401.25;5017920;28;11574;-72
2022/01/24 12:34:48;;;;;;;;;41.00;29.50;;;;;5.96;68.04;103404.53;5023005;28;11596;-72
2022/01/24 12:37:30;;;;;;;;;53.50;38.75;;;;;5.93;67.50;103391.25;5023175;28;12234;-72
2022/01/24 12:40:05;;;;;;;;;33.25;27.25;;;;;5.96;68.21;103388.41;5022648;28;11582;-72
2022/01/24 12:42:57;;;;;;;;;53.25;41.50;;;;;5.92;67.40;103376.09;5018137;28;11646;-72
2022/01/24 12:48:49;;;;;;;;;35.00;32.00;;;;;5.96;68.38;103375.81;4936769;28;12357;-72
2022/01/24 12:51:18;;;;;;;;;46.25;38.00;;;;;5.97;68.08;103382.94;4936618;28;13062;-71
2022/01/24 12:53:49;;;;;;;;;50.25;39.50;;;;;6.01;67.08;103376.38;4976783;28;13057;-71
2022/01/24 12:56:18;;;;;;;;;45.50;41.75;;;;;5.87;67.15;103382.59;5014392;28;11981;-72
2022/01/24 12:58:49;;;;;;;;;37.25;35.25;;;;;5.98;67.07;103381.09;5011942;28;11573;-71
2022/01/24 13:01:19;;;;;;;;;50.75;40.50;;;;;5.83;67.52;103378.38;5010074;28;11681;-72
2022/01/24 13:03:48;;;;;;;;;43.00;34.50;;;;;5.78;67.29;103371.56;5015750;28;12310;-71
2022/01/24 13:06:17;;;;;;;;;42.75;36.75;;;;;5.92;67.46;103373.41;5015471;28;11555;-71
2022/01/24 13:09:16;;;;;;;;;52.00;41.00;;;;;5.69;66.92;103372.09;5014053;28;11536;-72
2022/01/24 13:11:48;;;;;;;;;52.00;42.75;;;;;5.71;67.74;103362.16;5013819;28;11524;-72
2022/01/24 13:14:29;;;;;;;;;59.50;42.25;;;;;5.46;68.37;103352.06;5016696;28;11632;-71